21:44
Airports
History
Links
Donate
Help keep this website running!
PayPal
Bitcoin
This page is community maintained. The information is intended for PC simulator navigation or reference.
Always use approved charts for navigation.
ESFR
RADA
RADA (ESFR)
Örslösa, Västra Götaland County, Sweden (53197)
(U)
Lat/Lng:58° 29' 53.29" N / 13° 3' 11.64" E
58.498135 / 13.053232
Elevation:230'ft / 70mMSL
ID / ICAO:ESFR
Runways:1
Longest:(18-36) 1,979.5m / 6,494ft Asphalt
Distance To
Airport ID:
Airport Radio Frequencies
Tower: 133.5
Approach: 133.5, 136.02
Nearby VORs <50NM
Nearby NDBs
Nearby WeatherUpdated 08-16-17 16:20 GMT
Nearby weather at ESGT, Trollhattan Vanersborg located 28.5 nautical miles from ESFR
Altimeter: 30.06
Visibility: statute miles
Wind: 9 knots (260°)
Temp: 19°c 66°f
Humidity: 63.8%

METAR: ESGT 161620Z 26009KT FEW040 19/12 Q1018

(Powered by phpweather)
Runway 18 / 36
Dimensions:1979.5 x 33.5m 6494' x 110'ft
Surface:Asphalt
Edge Lights:High intensity
Runway 18 [A]Runway 36 [B]
Heading:184°TH 004°TH
Lat:
Lng:
58° 30' 25.28"N
13° 3' 16.56"E
58° 29' 21.29"N
13° 3' 6.71"E
User Notes and Comments
Google Map
Nearby Airports
(C) LIDKOPING 4.9 NM
ESGL ESE 117°
(C) Satenas 13.3 NM
ESIB WSW 248°
4 Gotene Brannebrona 20.9 NM
ESGN ENE 74°
4 Herrljunga 28.0 NM
ESGH S 175°
(C) Trollhattan Vanersborg 28.5 NM
ESGT (WX) WSW 244°
(C) FALKOPING 29.8 NM
ESGK SE 139°
4 Falkoping Alleberg 32.1 NM
ESGC SE 141°
VFR Chart
Flight Planning at SkyVector.com